createdAt,value
2019-03-27T00:02:23.778Z,11.77
2019-03-27T00:04:53.667Z,16.93
2019-03-27T00:07:23.479Z,13.70
2019-03-27T00:09:53.322Z,15.50
2019-03-27T00:12:23.168Z,20.30
2019-03-27T00:14:53.122Z,15.53
2019-03-27T00:17:22.949Z,17.17
2019-03-27T00:19:52.803Z,15.07
2019-03-27T00:22:22.634Z,14.80
2019-03-27T00:24:52.471Z,13.83
2019-03-27T00:27:22.287Z,16.93
2019-03-27T00:29:52.110Z,15.97
2019-03-27T00:32:21.933Z,16.80
2019-03-27T00:34:51.765Z,13.97
2019-03-27T00:37:21.597Z,17.77
2019-03-27T00:39:51.446Z,21.20
2019-03-27T00:42:21.270Z,11.90
2019-03-27T00:44:51.136Z,16.27
2019-03-27T00:47:20.999Z,15.80
2019-03-27T00:49:50.841Z,14.40
2019-03-27T00:52:20.733Z,13.70
2019-03-27T00:54:50.571Z,17.70
2019-03-27T00:57:20.399Z,12.47
2019-03-27T00:59:50.228Z,20.60
2019-03-27T01:02:20.095Z,20.90
2019-03-27T01:04:49.958Z,17.83
2019-03-27T01:07:20.033Z,19.33
2019-03-27T01:10:08.654Z,21.10
2019-03-27T01:12:57.258Z,21.73
2019-03-27T01:15:39.216Z,17.83
2019-03-27T01:17:58.683Z,20.37
2019-03-27T01:20:28.545Z,15.90
2019-03-27T01:22:58.375Z,17.80
2019-03-27T01:25:28.267Z,21.70
2019-03-27T01:27:58.186Z,26.10
2019-03-27T01:30:28.007Z,19.00
2019-03-27T01:32:57.861Z,17.97
2019-03-27T01:35:27.709Z,20.57
2019-03-27T01:37:57.559Z,20.80
2019-03-27T01:40:27.407Z,20.17
2019-03-27T01:42:57.243Z,22.47
2019-03-27T01:45:27.121Z,22.13
2019-03-27T01:47:56.967Z,26.00
2019-03-27T01:50:26.812Z,20.73
2019-03-27T01:52:56.644Z,23.07
2019-03-27T01:55:26.544Z,23.80
2019-03-27T01:57:56.531Z,23.17
2019-03-27T02:00:26.388Z,24.33
2019-03-27T02:02:56.298Z,31.27
2019-03-27T02:05:26.130Z,25.57
2019-03-27T02:08:14.701Z,30.57
2019-03-27T02:10:44.496Z,25.03
2019-03-27T02:13:14.250Z,24.43
2019-03-27T02:15:44.063Z,22.47
2019-03-27T02:18:13.818Z,27.73
2019-03-27T02:20:43.895Z,29.27
2019-03-27T02:23:13.678Z,36.60
2019-03-27T02:25:43.455Z,25.53
2019-03-27T02:28:13.252Z,22.37
2019-03-27T02:30:43.033Z,30.03
2019-03-27T02:33:12.741Z,27.17
2019-03-27T02:35:42.539Z,26.23
2019-03-27T02:38:12.299Z,24.80
2019-03-27T02:40:42.082Z,28.37
2019-03-27T02:43:11.881Z,28.00
2019-03-27T02:45:41.628Z,28.67
2019-03-27T02:48:13.984Z,31.03
2019-03-27T02:50:42.974Z,34.40
2019-03-27T02:53:12.725Z,30.83
2019-03-27T02:55:42.531Z,34.77
2019-03-27T02:58:12.301Z,24.70
2019-03-27T03:00:42.115Z,24.83
2019-03-27T03:03:30.662Z,24.70
2019-03-27T03:06:00.435Z,28.10
2019-03-27T03:08:30.194Z,29.50
2019-03-27T03:10:59.903Z,30.03
2019-03-27T03:13:29.674Z,27.67
2019-03-27T03:15:59.469Z,27.23
2019-03-27T03:18:29.334Z,25.67
2019-03-27T03:20:59.032Z,30.90
2019-03-27T03:23:28.807Z,27.00
2019-03-27T03:25:58.502Z,33.37
2019-03-27T03:28:28.282Z,23.63
2019-03-27T03:30:58.041Z,26.80
2019-03-27T03:33:27.745Z,28.30
2019-03-27T03:35:57.506Z,30.67
2019-03-27T03:38:27.230Z,31.57
2019-03-27T03:40:57.017Z,28.10
2019-03-27T03:43:26.796Z,33.90
2019-03-27T03:45:56.664Z,30.27
2019-03-27T03:48:26.378Z,32.77
2019-03-27T03:50:59.639Z,28.50
2019-03-27T03:53:31.520Z,30.63
2019-03-27T03:56:02.193Z,31.90
2019-03-27T03:58:33.450Z,32.03
2019-03-27T04:01:03.870Z,31.57
2019-03-27T04:03:35.880Z,32.43
2019-03-27T04:06:05.784Z,34.30
2019-03-27T04:08:35.464Z,33.07
2019-03-27T04:11:05.157Z,34.07
2019-03-27T04:13:34.953Z,31.30
2019-03-27T04:16:04.679Z,30.50
2019-03-27T04:18:34.509Z,33.33
2019-03-27T04:21:04.326Z,36.87
2019-03-27T04:23:34.105Z,30.10
2019-03-27T04:26:10.064Z,30.27
2019-03-27T04:28:35.436Z,30.90
2019-03-27T04:31:05.346Z,28.17
2019-03-27T04:33:35.126Z,32.43
2019-03-27T04:36:04.833Z,34.40
2019-03-27T04:38:34.605Z,40.17
2019-03-27T04:41:04.411Z,33.03
2019-03-27T04:43:34.172Z,32.70
2019-03-27T04:46:03.943Z,36.07
2019-03-27T04:48:33.641Z,31.93
2019-03-27T04:51:03.428Z,33.63
2019-03-27T04:53:33.189Z,29.87
2019-03-27T04:56:03.033Z,35.57
2019-03-27T04:58:32.882Z,27.30
2019-03-27T05:01:02.669Z,35.10
2019-03-27T05:03:32.460Z,34.00
2019-03-27T05:06:02.187Z,37.43
2019-03-27T05:08:31.982Z,47.10
2019-03-27T05:11:01.773Z,40.87
2019-03-27T05:13:31.517Z,31.47
2019-03-27T05:16:01.386Z,35.03
2019-03-27T05:18:31.101Z,33.73
2019-03-27T05:21:00.866Z,32.10
2019-03-27T05:23:30.646Z,33.13
2019-03-27T05:26:00.459Z,37.83
2019-03-27T05:28:30.160Z,42.73
2019-03-27T05:30:59.888Z,36.67
2019-03-27T05:33:32.588Z,28.40
2019-03-27T05:36:01.034Z,35.83
2019-03-27T05:38:30.746Z,41.63
2019-03-27T05:41:01.538Z,32.93
2019-03-27T05:43:31.253Z,41.03
2019-03-27T05:46:01.047Z,42.60
2019-03-27T05:48:30.850Z,33.63
2019-03-27T05:51:00.591Z,31.87
2019-03-27T05:53:30.381Z,36.40
2019-03-27T05:56:00.167Z,39.00
2019-03-27T05:58:29.968Z,31.13
2019-03-27T06:00:59.770Z,29.23
2019-03-27T06:03:29.561Z,33.07
2019-03-27T06:05:59.270Z,32.67
2019-03-27T06:08:28.998Z,33.43
2019-03-27T06:10:58.798Z,36.93
2019-03-27T06:13:28.595Z,33.57
2019-03-27T06:15:58.383Z,33.00
2019-03-27T06:18:28.186Z,35.80
2019-03-27T06:20:57.963Z,33.10
2019-03-27T06:23:28.097Z,37.17
2019-03-27T06:25:57.865Z,41.60
2019-03-27T06:28:27.673Z,36.63
2019-03-27T06:30:57.361Z,37.10
2019-03-27T06:33:27.146Z,43.10
2019-03-27T06:35:56.933Z,35.40
2019-03-27T06:38:26.730Z,30.10
2019-03-27T06:40:56.427Z,43.23
2019-03-27T06:43:26.569Z,30.30
2019-03-27T06:45:58.404Z,32.40
2019-03-27T06:48:27.774Z,31.57
2019-03-27T06:50:57.558Z,31.10
2019-03-27T06:53:27.435Z,36.77
2019-03-27T06:55:57.205Z,26.43
2019-03-27T06:58:27.003Z,36.13
2019-03-27T07:00:56.785Z,27.00
2019-03-27T07:03:26.562Z,27.43
2019-03-27T07:05:56.298Z,34.87
2019-03-27T07:08:25.998Z,24.13
2019-03-27T07:10:55.709Z,30.47
2019-03-27T07:13:25.477Z,36.43
2019-03-27T07:15:55.237Z,24.87
2019-03-27T07:18:25.033Z,25.57
2019-03-27T07:20:54.792Z,36.23
2019-03-27T07:23:24.654Z,27.33
2019-03-27T07:25:54.430Z,30.47
2019-03-27T07:28:24.155Z,32.33
2019-03-27T07:30:53.944Z,29.67
2019-03-27T07:33:23.672Z,39.67
2019-03-27T07:35:53.493Z,29.23
2019-03-27T07:38:23.272Z,39.10
2019-03-27T07:40:53.038Z,30.63
2019-03-27T07:43:22.845Z,33.10
2019-03-27T07:45:52.552Z,31.87
2019-03-27T07:48:22.342Z,26.07
2019-03-27T07:50:52.150Z,33.73
2019-03-27T07:53:22.579Z,30.80
2019-03-27T07:55:52.544Z,30.70
2019-03-27T07:58:22.238Z,34.33
2019-03-27T08:00:52.023Z,34.90
2019-03-27T08:03:21.755Z,27.20
2019-03-27T08:05:51.542Z,35.23
2019-03-27T08:08:21.334Z,33.63
2019-03-27T08:10:51.145Z,38.67
2019-03-27T08:13:20.935Z,31.13
2019-03-27T08:15:50.706Z,26.60
2019-03-27T08:18:20.521Z,23.77
2019-03-27T08:20:50.295Z,31.37
2019-03-27T08:23:20.085Z,29.63
2019-03-27T08:25:49.880Z,30.43
2019-03-27T08:28:19.701Z,27.60
2019-03-27T08:30:49.388Z,27.13
2019-03-27T08:33:19.197Z,31.83
2019-03-27T08:35:48.974Z,33.17
2019-03-27T08:38:18.786Z,23.90
2019-03-27T08:40:48.490Z,31.07
2019-03-27T08:43:21.439Z,31.30
2019-03-27T08:45:49.697Z,42.10
2019-03-27T08:48:19.423Z,30.20
2019-03-27T08:50:49.193Z,26.23
2019-03-27T08:53:18.992Z,26.47
2019-03-27T08:55:48.817Z,33.03
2019-03-27T08:58:18.622Z,23.87
2019-03-27T09:00:52.999Z,29.00
2019-03-27T09:03:22.790Z,23.57
2019-03-27T09:05:52.524Z,28.93
2019-03-27T09:08:22.301Z,26.80
2019-03-27T09:10:52.079Z,29.43
2019-03-27T09:13:21.818Z,34.43
2019-03-27T09:15:51.521Z,23.90
2019-03-27T09:18:21.336Z,30.03
2019-03-27T09:20:51.119Z,23.40
2019-03-27T09:23:20.934Z,26.47
2019-03-27T09:25:50.697Z,31.30
2019-03-27T09:28:20.514Z,23.40
2019-03-27T09:30:50.292Z,22.80
2019-03-27T09:33:20.088Z,24.23
2019-03-27T09:35:49.866Z,31.20
2019-03-27T09:38:19.704Z,17.07
2019-03-27T09:40:49.493Z,19.80
2019-03-27T09:43:19.278Z,15.00
2019-03-27T09:45:49.078Z,14.63
2019-03-27T09:48:18.862Z,13.97
2019-03-27T09:50:48.755Z,15.40
2019-03-27T09:53:18.574Z,13.80
2019-03-27T09:55:48.273Z,16.60
2019-03-27T09:58:18.072Z,14.73
2019-03-27T10:01:09.433Z,15.10
2019-03-27T10:03:39.277Z,10.00
2019-03-27T10:06:09.085Z,11.17
2019-03-27T10:08:38.897Z,11.90
2019-03-27T10:11:08.685Z,10.60
2019-03-27T10:13:38.469Z,13.23
2019-03-27T10:16:08.352Z,12.30
2019-03-27T10:18:38.074Z,17.33
2019-03-27T10:21:07.882Z,15.93
2019-03-27T10:23:37.670Z,15.37
2019-03-27T10:26:07.505Z,15.50
2019-03-27T10:28:37.306Z,12.47
2019-03-27T10:31:07.080Z,13.50
2019-03-27T10:33:36.834Z,15.93
2019-03-27T10:36:06.627Z,14.83
2019-03-27T10:38:36.466Z,14.33
2019-03-27T10:41:06.337Z,20.13
2019-03-27T10:43:36.159Z,17.40
2019-03-27T10:46:05.947Z,16.23
2019-03-27T10:48:35.722Z,13.67
2019-03-27T10:51:05.513Z,13.23
2019-03-27T10:53:35.332Z,17.13
2019-03-27T10:56:05.126Z,13.87
2019-03-27T10:58:34.960Z,13.30
2019-03-27T11:01:07.212Z,13.10
2019-03-27T11:03:36.190Z,11.23
2019-03-27T11:06:05.987Z,15.13
2019-03-27T11:08:35.791Z,11.10
2019-03-27T11:11:05.599Z,13.77
2019-03-27T11:13:35.414Z,13.97
2019-03-27T11:16:05.198Z,12.37
2019-03-27T11:18:34.930Z,10.17
2019-03-27T11:21:04.651Z,14.00
2019-03-27T11:23:34.425Z,15.13
2019-03-27T11:26:04.204Z,11.67
2019-03-27T11:28:33.919Z,12.77
2019-03-27T11:31:03.728Z,10.33
2019-03-27T11:33:36.695Z,13.17
2019-03-27T11:36:06.508Z,14.57
2019-03-27T11:38:37.724Z,13.00
2019-03-27T11:41:07.772Z,14.13
2019-03-27T11:43:37.574Z,14.87
2019-03-27T11:46:07.286Z,13.77
2019-03-27T11:48:37.168Z,14.87
2019-03-27T11:51:09.835Z,13.83
2019-03-27T11:53:39.563Z,12.27
2019-03-27T11:56:09.342Z,15.87
2019-03-27T11:58:39.154Z,17.30
2019-03-27T12:01:08.959Z,13.33
2019-03-27T12:03:38.749Z,15.87
2019-03-27T12:06:08.558Z,16.80
2019-03-27T12:08:38.362Z,15.53
2019-03-27T12:11:08.129Z,15.43
2019-03-27T12:13:37.955Z,16.57
2019-03-27T12:16:07.856Z,16.50
2019-03-27T12:18:37.578Z,10.90
2019-03-27T12:21:07.309Z,13.60
2019-03-27T12:23:37.113Z,12.77
2019-03-27T12:26:06.898Z,16.57
2019-03-27T12:28:36.692Z,13.97
2019-03-27T12:31:07.425Z,13.70
2019-03-27T12:33:37.207Z,11.83
2019-03-27T12:36:07.001Z,13.10
2019-03-27T12:38:36.794Z,10.73
2019-03-27T12:41:06.578Z,11.00
2019-03-27T12:43:36.381Z,10.70
2019-03-27T12:46:06.174Z,13.67
2019-03-27T12:48:35.968Z,12.37
2019-03-27T12:51:12.585Z,13.63
2019-03-27T12:53:37.154Z,7.80
2019-03-27T12:56:06.988Z,11.17
2019-03-27T12:58:36.795Z,9.77
2019-03-27T13:01:07.963Z,10.67
2019-03-27T13:03:37.816Z,9.70
2019-03-27T13:06:07.539Z,8.70
2019-03-27T13:08:37.258Z,10.40
2019-03-27T13:11:07.068Z,11.80
2019-03-27T13:13:36.872Z,12.57
2019-03-27T13:16:06.673Z,13.90
2019-03-27T13:18:36.482Z,13.93
2019-03-27T13:21:06.265Z,14.37
2019-03-27T13:23:36.001Z,10.27
2019-03-27T13:26:05.793Z,8.33
2019-03-27T13:28:48.251Z,9.67
2019-03-27T13:31:07.114Z,9.03
2019-03-27T13:33:36.897Z,10.20
2019-03-27T13:36:08.097Z,13.93
2019-03-27T13:38:37.902Z,10.10
2019-03-27T13:41:07.660Z,7.03
2019-03-27T13:43:37.367Z,12.00
2019-03-27T13:46:07.150Z,9.20
2019-03-27T13:48:36.942Z,13.87
2019-03-27T13:51:06.709Z,8.30
2019-03-27T13:53:36.615Z,9.37
2019-03-27T13:56:06.375Z,9.70
2019-03-27T13:58:36.184Z,9.40
2019-03-27T14:01:08.798Z,9.77
2019-03-27T14:03:37.483Z,6.43
2019-03-27T14:06:07.306Z,9.90
2019-03-27T14:08:37.194Z,8.80
2019-03-27T14:11:06.921Z,6.40
2019-03-27T14:13:36.720Z,8.60
2019-03-27T14:16:06.535Z,7.40
2019-03-27T14:18:36.250Z,8.33
2019-03-27T14:21:06.049Z,8.50
2019-03-27T14:23:35.760Z,7.07
2019-03-27T14:26:05.610Z,9.30
2019-03-27T14:28:35.432Z,12.60
2019-03-27T14:31:05.249Z,6.67
2019-03-27T14:33:35.038Z,9.77
2019-03-27T14:36:04.772Z,6.70
2019-03-27T14:38:34.585Z,6.20
2019-03-27T14:41:04.392Z,10.23
2019-03-27T14:43:34.203Z,6.80
2019-03-27T14:46:04.002Z,6.53
2019-03-27T14:48:33.749Z,8.20
2019-03-27T14:51:03.470Z,9.57
2019-03-27T14:53:33.253Z,9.10
2019-03-27T14:56:03.148Z,6.00
2019-03-27T14:58:32.854Z,6.80
2019-03-27T15:01:02.677Z,6.23
2019-03-27T15:03:32.490Z,8.53
2019-03-27T15:06:02.267Z,10.43
2019-03-27T15:08:32.068Z,10.50
2019-03-27T15:11:01.799Z,8.53
2019-03-27T15:13:31.567Z,6.97
2019-03-27T15:16:01.361Z,6.33
2019-03-27T15:18:31.135Z,6.47
2019-03-27T15:21:00.953Z,6.47
2019-03-27T15:23:30.726Z,5.93
2019-03-27T15:26:00.536Z,13.77
2019-03-27T15:28:30.429Z,10.30
2019-03-27T15:31:00.159Z,6.80
2019-03-27T15:33:29.963Z,5.60
2019-03-27T15:35:59.785Z,4.60
2019-03-27T15:38:29.552Z,5.07
2019-03-27T15:40:59.341Z,5.37
2019-03-27T15:43:29.117Z,6.57
2019-03-27T15:45:58.969Z,7.30
2019-03-27T15:48:28.794Z,4.87
2019-03-27T15:50:59.032Z,4.87
2019-03-27T15:53:28.995Z,4.00
2019-03-27T15:55:58.809Z,5.00
2019-03-27T15:58:28.612Z,4.40
2019-03-27T16:00:58.458Z,6.30
2019-03-27T16:03:28.261Z,5.07
2019-03-27T16:05:58.043Z,3.60
2019-03-27T16:08:28.865Z,5.90
2019-03-27T16:10:58.949Z,7.90
2019-03-27T16:13:28.928Z,4.03
2019-03-27T16:15:58.933Z,6.10
2019-03-27T16:18:28.929Z,5.20
2019-03-27T16:21:01.980Z,4.37
2019-03-27T16:23:32.401Z,6.07
2019-03-27T16:26:02.576Z,5.50
2019-03-27T16:28:32.604Z,5.23
2019-03-27T16:31:02.649Z,5.23
2019-03-27T16:33:32.694Z,6.10
2019-03-27T16:36:03.034Z,6.63
2019-03-27T16:38:33.076Z,6.63
2019-03-27T16:41:03.387Z,5.63
2019-03-27T16:43:33.450Z,4.10
2019-03-27T16:46:03.583Z,4.07
2019-03-27T16:48:33.549Z,3.53
2019-03-27T16:51:03.382Z,5.57
2019-03-27T16:53:33.171Z,3.93
2019-03-27T16:56:03.017Z,5.00
2019-03-27T16:58:33.121Z,5.53
2019-03-27T17:01:02.895Z,3.13
2019-03-27T17:03:32.733Z,4.30
2019-03-27T17:06:02.531Z,3.40
2019-03-27T17:08:32.368Z,8.83
2019-03-27T17:11:02.181Z,3.70
2019-03-27T17:13:32.086Z,6.13
2019-03-27T17:16:01.926Z,3.50
2019-03-27T17:18:31.769Z,8.73
2019-03-27T17:21:01.569Z,3.53
2019-03-27T17:23:31.402Z,3.53
2019-03-27T17:26:01.315Z,4.03
2019-03-27T17:28:31.195Z,3.73
2019-03-27T17:31:01.109Z,3.83
2019-03-27T17:33:30.956Z,4.80
2019-03-27T17:36:01.073Z,4.67
2019-03-27T17:38:30.910Z,3.50
2019-03-27T17:41:00.703Z,2.87
2019-03-27T17:43:30.461Z,6.00
2019-03-27T17:46:00.252Z,2.67
2019-03-27T17:48:30.088Z,5.43
2019-03-27T17:50:59.897Z,5.50
2019-03-27T17:53:31.883Z,3.60
2019-03-27T17:56:01.309Z,5.00
2019-03-27T17:58:31.061Z,3.40
2019-03-27T18:01:03.513Z,5.60
2019-03-27T18:03:33.732Z,8.03
2019-03-27T18:06:04.446Z,7.40
2019-03-27T18:08:35.015Z,7.70
2019-03-27T18:11:07.975Z,5.53
2019-03-27T18:13:36.742Z,8.93
2019-03-27T18:16:06.602Z,5.13
2019-03-27T18:18:36.324Z,6.43
2019-03-27T18:21:06.201Z,5.37
2019-03-27T18:23:45.832Z,6.67
2019-03-27T18:26:07.444Z,7.00
2019-03-27T18:28:37.473Z,8.33
2019-03-27T18:31:07.295Z,5.40
2019-03-27T18:33:37.095Z,4.87
2019-03-27T18:36:06.820Z,5.93
2019-03-27T18:38:36.742Z,4.60
2019-03-27T18:41:06.522Z,4.30
2019-03-27T18:43:36.258Z,7.53
2019-03-27T18:46:06.059Z,7.10
2019-03-27T18:48:35.866Z,7.57
2019-03-27T18:51:05.732Z,6.93
2019-03-27T18:53:35.528Z,8.33
2019-03-27T18:56:05.626Z,6.13
2019-03-27T18:58:35.454Z,5.40
2019-03-27T19:01:05.517Z,4.80
2019-03-27T19:03:35.691Z,5.73
2019-03-27T19:06:05.800Z,6.50
2019-03-27T19:08:35.904Z,7.63
2019-03-27T19:11:05.913Z,5.23
2019-03-27T19:13:35.931Z,4.23
2019-03-27T19:16:06.153Z,7.53
2019-03-27T19:18:36.125Z,5.50
2019-03-27T19:21:05.995Z,4.10
2019-03-27T19:23:35.959Z,3.17
2019-03-27T19:26:06.003Z,3.30
2019-03-27T19:28:36.137Z,6.10
2019-03-27T19:31:07.345Z,6.10
2019-03-27T19:33:37.390Z,6.07
2019-03-27T19:36:07.715Z,4.57
2019-03-27T19:38:37.917Z,4.70
2019-03-27T19:41:07.941Z,5.63
2019-03-27T19:43:37.969Z,5.53
2019-03-27T19:46:08.022Z,10.20
2019-03-27T19:48:38.041Z,6.77
2019-03-27T19:51:11.151Z,5.93
2019-03-27T19:53:39.787Z,6.87
2019-03-27T19:56:09.837Z,5.83
2019-03-27T19:58:39.650Z,5.93
2019-03-27T20:01:09.565Z,7.83
2019-03-27T20:03:39.394Z,6.10
2019-03-27T20:06:09.115Z,7.70
2019-03-27T20:08:38.958Z,8.43
2019-03-27T20:11:08.841Z,5.47
2019-03-27T20:13:38.661Z,6.90
2019-03-27T20:16:08.501Z,6.70
2019-03-27T20:18:38.366Z,4.97
2019-03-27T20:21:08.655Z,5.43
2019-03-27T20:23:38.808Z,7.73
2019-03-27T20:26:09.001Z,7.27
2019-03-27T20:28:38.974Z,8.43
2019-03-27T20:31:08.800Z,6.70
2019-03-27T20:33:38.642Z,7.77
2019-03-27T20:36:08.450Z,7.73
2019-03-27T20:38:38.257Z,10.90
2019-03-27T20:41:08.112Z,11.00
2019-03-27T20:43:37.915Z,6.53
2019-03-27T20:46:07.706Z,6.90
2019-03-27T20:48:37.964Z,7.30
2019-03-27T20:51:08.136Z,5.03
2019-03-27T20:53:37.999Z,7.20
2019-03-27T20:56:07.809Z,7.20
2019-03-27T20:58:37.668Z,8.43
2019-03-27T21:01:07.498Z,8.13
2019-03-27T21:03:37.326Z,9.23
2019-03-27T21:06:07.115Z,6.40
2019-03-27T21:08:36.946Z,6.00
2019-03-27T21:11:06.725Z,7.13
2019-03-27T21:13:41.006Z,5.53
2019-03-27T21:16:08.035Z,4.53
2019-03-27T21:18:37.846Z,5.47
2019-03-27T21:21:08.821Z,3.93
2019-03-27T21:23:38.674Z,4.80
2019-03-27T21:26:09.827Z,8.30
2019-03-27T21:28:39.813Z,7.40
2019-03-27T21:31:09.609Z,6.23
2019-03-27T21:33:39.348Z,6.13
2019-03-27T21:36:09.147Z,10.70
2019-03-27T21:38:38.894Z,6.90
2019-03-27T21:41:08.612Z,14.70
2019-03-27T21:43:38.437Z,9.23
2019-03-27T21:46:08.177Z,8.90
2019-03-27T21:48:37.920Z,6.70
2019-03-27T21:51:07.646Z,12.30
2019-03-27T21:53:37.433Z,7.67
2019-03-27T21:56:07.192Z,8.37
2019-03-27T21:58:36.925Z,10.40
2019-03-27T22:01:08.200Z,7.90
2019-03-27T22:03:38.022Z,5.80
2019-03-27T22:06:07.784Z,5.67
2019-03-27T22:08:37.509Z,8.10
2019-03-27T22:11:07.293Z,4.93
2019-03-27T22:13:37.060Z,4.87
2019-03-27T22:16:06.842Z,6.83
2019-03-27T22:18:36.632Z,8.10
2019-03-27T22:21:13.326Z,8.40
2019-03-27T22:23:43.060Z,7.20
2019-03-27T22:26:12.829Z,5.57
2019-03-27T22:28:42.613Z,8.50
2019-03-27T22:31:12.335Z,6.23
2019-03-27T22:33:42.187Z,6.60
2019-03-27T22:36:11.980Z,10.63
2019-03-27T22:38:41.677Z,20.80
2019-03-27T22:41:11.618Z,16.10
2019-03-27T22:43:41.398Z,10.63
2019-03-27T22:46:11.197Z,18.33
2019-03-27T22:48:40.973Z,15.10
2019-03-27T22:51:10.774Z,11.37
2019-03-27T22:53:40.532Z,14.23
2019-03-27T22:56:10.296Z,9.40
2019-03-27T22:58:40.051Z,7.80
2019-03-27T23:01:09.851Z,9.80
2019-03-27T23:03:39.635Z,6.53
2019-03-27T23:06:09.424Z,11.40
2019-03-27T23:08:39.198Z,6.40
2019-03-27T23:11:11.660Z,9.03
2019-03-27T23:13:41.449Z,6.90
2019-03-27T23:16:11.143Z,9.73
2019-03-27T23:18:40.937Z,6.30
2019-03-27T23:21:10.754Z,9.20
2019-03-27T23:23:40.529Z,6.90
2019-03-27T23:26:10.342Z,8.07
2019-03-27T23:28:40.159Z,8.70
2019-03-27T23:31:09.859Z,5.13
2019-03-27T23:33:39.625Z,10.03
2019-03-27T23:36:09.662Z,10.37
2019-03-27T23:38:42.900Z,6.67
2019-03-27T23:41:12.721Z,7.13
2019-03-27T23:43:42.484Z,10.87
2019-03-27T23:46:12.272Z,9.63
2019-03-27T23:48:42.033Z,11.23
2019-03-27T23:51:11.745Z,7.70
2019-03-27T23:53:41.459Z,6.73
2019-03-27T23:56:16.734Z,6.60
2019-03-27T23:58:42.721Z,11.23
